Time;durP1;ratioP1;P1;durP2;ratioP2;P2;SDS_P1;SDS_P2;PMS_P1;PMS_P2;Temp;Humidity;BMP_temperature;BMP_pressure;BME280_temperature;BME280_humidity;BME280_pressure;Samples;Min_cycle;Max_cycle;Signal;HPM_P1;HPM_P2
2021/11/29 00:00:51;;;;;;;12.90;2.60;;;19.60;99.90;;;;;;5042244;28;20044;-68
2021/11/29 00:03:20;;;;;;;15.65;2.40;;;19.50;99.90;;;;;;5041888;28;20074;-69
2021/11/29 00:05:48;;;;;;;14.80;2.47;;;19.60;99.90;;;;;;5039271;28;20029;-69
2021/11/29 00:08:15;;;;;;;12.07;2.45;;;19.60;99.90;;;;;;5041625;28;20508;-69
2021/11/29 00:10:42;;;;;;;16.40;2.58;;;19.50;99.90;;;;;;5036910;28;20021;-69
2021/11/29 00:13:10;;;;;;;15.43;2.85;;;19.60;99.90;;;;;;5032427;28;20025;-69
2021/11/29 00:15:37;;;;;;;16.10;2.72;;;19.70;99.90;;;;;;5031827;28;20036;-69
2021/11/29 00:18:05;;;;;;;13.95;2.13;;;19.70;99.90;;;;;;5037796;28;20061;-68
2021/11/29 00:20:33;;;;;;;16.52;2.85;;;19.80;99.90;;;;;;5032069;28;20025;-69
2021/11/29 00:23:00;;;;;;;21.65;3.47;;;19.80;99.90;;;;;;5042517;28;20072;-69
2021/11/29 00:25:27;;;;;;;14.70;2.45;;;19.80;99.90;;;;;;5032045;28;20044;-69
2021/11/29 00:27:55;;;;;;;12.45;2.22;;;19.90;99.90;;;;;;5030859;28;20030;-69
2021/11/29 00:30:23;;;;;;;14.18;2.17;;;20.00;99.90;;;;;;5021241;28;20032;-69
2021/11/29 00:32:50;;;;;;;18.25;3.05;;;20.10;99.90;;;;;;5025340;28;20018;-69
2021/11/29 00:35:18;;;;;;;15.35;2.83;;;20.00;99.90;;;;;;5032416;28;20055;-69
2021/11/29 00:37:45;;;;;;;17.40;2.45;;;20.10;99.90;;;;;;5042718;28;20068;-69
2021/11/29 00:40:13;;;;;;;21.30;3.10;;;20.20;99.90;;;;;;5052304;28;20029;-69
2021/11/29 00:42:41;;;;;;;16.02;2.42;;;20.30;99.90;;;;;;5038869;28;20025;-69
2021/11/29 00:45:09;;;;;;;17.15;3.22;;;20.40;99.90;;;;;;5031953;28;20109;-69
2021/11/29 00:47:37;;;;;;;16.13;2.97;;;20.30;99.90;;;;;;5031056;28;20025;-69
2021/11/29 00:50:08;;;;;;;21.75;3.03;;;20.30;99.90;;;;;;5032062;28;20057;-69
2021/11/29 00:52:36;;;;;;;14.30;2.47;;;20.20;99.90;;;;;;5030613;28;20501;-69
2021/11/29 00:55:04;;;;;;;16.45;2.40;;;20.10;99.90;;;;;;5030019;28;20032;-69
2021/11/29 00:57:32;;;;;;;13.82;2.40;;;20.20;99.90;;;;;;5040777;28;20056;-69
2021/11/29 00:59:59;;;;;;;19.95;3.08;;;20.40;99.90;;;;;;5040969;28;20104;-69
2021/11/29 01:02:26;;;;;;;15.55;3.33;;;20.30;99.90;;;;;;5040027;28;20422;-69
2021/11/29 01:04:54;;;;;;;13.35;2.60;;;20.30;99.90;;;;;;5039981;28;20426;-69
2021/11/29 01:07:21;;;;;;;18.27;2.95;;;20.30;99.90;;;;;;5039132;28;20112;-69
2021/11/29 01:09:48;;;;;;;15.93;3.17;;;20.40;99.90;;;;;;5054526;28;20040;-69
2021/11/29 01:12:15;;;;;;;16.80;2.38;;;20.40;99.90;;;;;;5038245;28;20018;-69
2021/11/29 01:14:43;;;;;;;11.02;2.25;;;20.50;99.90;;;;;;5030936;28;20026;-69
2021/11/29 01:17:11;;;;;;;11.90;2.03;;;20.60;99.90;;;;;;5023637;28;20128;-69
2021/11/29 01:19:39;;;;;;;13.32;2.72;;;20.90;99.90;;;;;;5033792;28;20032;-69
2021/11/29 01:22:07;;;;;;;14.32;3.03;;;21.10;99.90;;;;;;5033832;28;20478;-69
2021/11/29 01:24:34;;;;;;;17.42;3.17;;;21.30;99.90;;;;;;5035198;28;20463;-69
2021/11/29 01:27:02;;;;;;;17.20;3.58;;;21.50;99.90;;;;;;5038994;28;20362;-70
2021/11/29 01:29:29;;;;;;;16.00;2.60;;;21.70;99.90;;;;;;5055105;28;20537;-69
2021/11/29 01:31:56;;;;;;;20.52;3.25;;;21.80;99.90;;;;;;5048011;28;20014;-70
2021/11/29 01:34:24;;;;;;;16.67;2.50;;;22.40;99.90;;;;;;5033826;28;20052;-70
2021/11/29 01:36:51;;;;;;;16.25;3.70;;;22.00;99.90;;;;;;5034025;28;20033;-70
2021/11/29 01:39:19;;;;;;;13.57;2.28;;;21.90;99.90;;;;;;5033804;28;20032;-70
2021/11/29 01:41:48;;;;;;;17.23;2.63;;;21.80;99.90;;;;;;5036330;28;20551;-69
2021/11/29 01:44:16;;;;;;;13.27;2.80;;;21.60;99.90;;;;;;5055095;28;20017;-69
2021/11/29 01:46:45;;;;;;;17.58;3.80;;;21.60;99.90;;;;;;5038492;28;20064;-69
2021/11/29 01:49:13;;;;;;;15.68;2.72;;;21.50;99.90;;;;;;5032626;28;20115;-69
2021/11/29 01:51:41;;;;;;;12.60;2.78;;;21.40;99.90;;;;;;5036504;28;20148;-69
2021/11/29 01:54:08;;;;;;;15.32;2.17;;;21.30;99.90;;;;;;5054938;28;20032;-70
2021/11/29 01:56:37;;;;;;;16.77;2.42;;;21.30;99.90;;;;;;5067422;28;20061;-70
2021/11/29 01:59:06;;;;;;;17.40;3.28;;;21.20;99.90;;;;;;5069839;28;20025;-69
2021/11/29 02:01:34;;;;;;;17.00;3.05;;;21.10;99.90;;;;;;5052001;28;20508;-69
2021/11/29 02:04:02;;;;;;;13.77;2.08;;;21.00;99.90;;;;;;5047920;28;20065;-70
2021/11/29 02:06:33;;;;;;;13.35;2.25;;;21.10;99.90;;;;;;5048261;28;20038;-69
2021/11/29 02:09:02;;;;;;;14.80;2.75;;;20.80;99.90;;;;;;5033154;28;20548;-70
2021/11/29 02:11:29;;;;;;;14.95;2.75;;;20.90;99.90;;;;;;5033660;28;20028;-70
2021/11/29 02:13:59;;;;;;;16.20;2.33;;;21.00;99.90;;;;;;5034549;28;20083;-70
2021/11/29 02:16:27;;;;;;;14.00;2.10;;;21.10;99.90;;;;;;5048880;28;20037;-70
2021/11/29 02:18:56;;;;;;;10.15;1.90;;;20.90;99.90;;;;;;5034296;28;20025;-70
2021/11/29 02:21:32;;;;;;;14.35;2.35;;;21.00;99.90;;;;;;5032665;28;20112;-69
2021/11/29 02:24:02;;;;;;;16.30;3.10;;;21.10;99.90;;;;;;5034076;28;20051;-69
2021/11/29 02:26:31;;;;;;;19.02;2.85;;;21.60;99.90;;;;;;5033225;28;20722;-70
2021/11/29 02:29:04;;;;;;;13.75;3.20;;;22.10;99.90;;;;;;5033883;28;20026;-70
2021/11/29 02:31:35;;;;;;;13.00;2.47;;;22.30;99.90;;;;;;5033414;28;20021;-69
2021/11/29 02:34:25;;;;;;;14.75;2.42;;;22.40;99.90;;;;;;5027459;28;20071;-70
2021/11/29 02:36:55;;;;;;;14.88;3.35;;;22.30;99.90;;;;;;5037221;28;20029;-70
2021/11/29 02:39:23;;;;;;;19.55;3.05;;;22.20;99.90;;;;;;5053845;28;20473;-70
2021/11/29 02:41:52;;;;;;;10.15;2.72;;;22.00;99.90;;;;;;5040114;28;20766;-70
2021/11/29 02:44:19;;;;;;;15.25;2.28;;;21.60;99.90;;;;;;5053714;28;20025;-70
2021/11/29 02:46:46;;;;;;;9.25;2.40;;;21.90;99.90;;;;;;5045379;28;20045;-70
2021/11/29 02:49:15;;;;;;;18.90;3.10;;;22.10;99.90;;;;;;5050789;28;20020;-70
2021/11/29 02:51:45;;;;;;;12.48;2.08;;;21.80;99.90;;;;;;5027371;28;20021;-70
2021/11/29 02:54:18;;;;;;;14.85;2.40;;;21.40;99.90;;;;;;5033652;28;20017;-70
2021/11/29 02:56:48;;;;;;;15.88;3.05;;;21.30;99.90;;;;;;5032101;28;20042;-69
2021/11/29 02:59:27;;;;;;;13.00;3.10;;;21.10;99.90;;;;;;5033124;28;20070;-70
2021/11/29 03:01:57;;;;;;;13.63;3.00;;;21.10;99.90;;;;;;5031623;28;20053;-70
2021/11/29 03:04:28;;;;;;;16.55;2.45;;;21.00;99.90;;;;;;5032747;28;20512;-70
2021/11/29 03:06:56;;;;;;;14.40;2.72;;;21.00;99.90;;;;;;5032890;28;20022;-70
2021/11/29 03:09:24;;;;;;;13.43;2.10;;;21.20;99.90;;;;;;5033355;28;20021;-70
2021/11/29 03:11:53;;;;;;;14.48;3.45;;;21.20;99.90;;;;;;5032497;28;20394;-70
2021/11/29 03:14:21;;;;;;;13.23;2.78;;;21.10;99.90;;;;;;5033259;28;20025;-70
2021/11/29 03:16:52;;;;;;;17.02;2.65;;;21.20;99.90;;;;;;5035676;28;20416;-70
2021/11/29 03:19:20;;;;;;;12.20;2.13;;;21.10;99.90;;;;;;5053251;28;20021;-70
2021/11/29 03:21:48;;;;;;;17.55;3.13;;;21.40;99.90;;;;;;5050634;28;20025;-70
2021/11/29 03:24:16;;;;;;;18.17;2.58;;;21.50;99.90;;;;;;5053042;28;20031;-69
2021/11/29 03:26:43;;;;;;;18.02;2.78;;;21.60;99.90;;;;;;5047059;28;20033;-70
2021/11/29 03:29:16;;;;;;;16.13;2.65;;;21.60;99.90;;;;;;5031529;28;20052;-70
2021/11/29 03:31:44;;;;;;;16.38;2.67;;;21.20;99.90;;;;;;5021560;28;20021;-70
2021/11/29 03:34:14;;;;;;;12.45;2.50;;;21.00;99.90;;;;;;5047572;28;20026;-69
2021/11/29 03:36:45;;;;;;;9.80;1.92;;;21.00;99.90;;;;;;5034408;28;20033;-69
2021/11/29 03:39:18;;;;;;;16.85;2.60;;;21.10;99.90;;;;;;5031337;28;20026;-70
2021/11/29 03:41:48;;;;;;;10.88;2.25;;;21.20;99.90;;;;;;5031900;28;20500;-69
2021/11/29 03:44:15;;;;;;;16.40;2.28;;;21.10;99.90;;;;;;5032810;28;20025;-70
2021/11/29 03:46:45;;;;;;;12.15;2.25;;;21.00;99.90;;;;;;5031786;28;20460;-70
2021/11/29 03:49:12;;;;;;;13.63;1.88;;;20.80;99.90;;;;;;5032734;28;20109;-70
2021/11/29 03:51:39;;;;;;;18.35;2.58;;;20.70;99.90;;;;;;5034259;28;20029;-69
2021/11/29 03:54:07;;;;;;;13.48;2.38;;;20.70;99.90;;;;;;5052700;28;20084;-70
2021/11/29 03:56:35;;;;;;;11.15;2.15;;;20.70;99.90;;;;;;5063531;28;20065;-70
2021/11/29 03:59:03;;;;;;;17.60;2.45;;;20.50;99.90;;;;;;5032664;28;20056;-70
2021/11/29 04:01:31;;;;;;;15.98;2.47;;;20.50;99.90;;;;;;5047168;28;20037;-70
2021/11/29 04:03:58;;;;;;;19.00;2.60;;;20.40;99.90;;;;;;5049121;28;20036;-69
2021/11/29 04:06:25;;;;;;;13.68;2.58;;;20.20;99.90;;;;;;5031925;28;20022;-70
2021/11/29 04:08:53;;;;;;;17.08;2.58;;;20.10;99.90;;;;;;5032510;28;20493;-69
2021/11/29 04:11:20;;;;;;;12.32;2.20;;;20.20;99.90;;;;;;5031225;28;20028;-70
2021/11/29 04:13:48;;;;;;;16.77;2.40;;;20.20;99.90;;;;;;5012931;28;20485;-70
2021/11/29 04:16:17;;;;;;;14.90;2.53;;;20.10;99.90;;;;;;5012790;28;20033;-69
2021/11/29 04:18:45;;;;;;;11.80;1.65;;;20.10;99.90;;;;;;5051557;28;20045;-70
2021/11/29 04:21:14;;;;;;;16.52;2.63;;;20.20;99.90;;;;;;5051337;28;20021;-70
2021/11/29 04:23:47;;;;;;;16.30;2.35;;;20.00;99.90;;;;;;5027499;28;20025;-70
2021/11/29 04:26:18;;;;;;;15.13;2.63;;;20.00;99.90;;;;;;5012858;28;20025;-70
2021/11/29 04:28:49;;;;;;;18.73;2.92;;;19.90;99.90;;;;;;5012489;28;20030;-70
2021/11/29 04:31:16;;;;;;;17.00;1.90;;;19.90;99.90;;;;;;5012988;28;20029;-69
2021/11/29 04:33:44;;;;;;;15.45;2.88;;;19.90;99.90;;;;;;5034765;28;20083;-70
2021/11/29 04:36:11;;;;;;;19.65;3.05;;;19.80;99.90;;;;;;5031776;28;20026;-70
2021/11/29 04:38:38;;;;;;;13.90;2.22;;;19.60;99.90;;;;;;5032172;28;20026;-69
2021/11/29 04:41:06;;;;;;;15.63;2.15;;;19.80;99.90;;;;;;5032336;28;20043;-69
2021/11/29 04:43:33;;;;;;;11.30;1.45;;;19.70;99.90;;;;;;5052188;28;20025;-69
2021/11/29 04:46:00;;;;;;;14.70;2.33;;;19.60;99.90;;;;;;5049729;28;20072;-70
2021/11/29 04:48:27;;;;;;;11.07;2.17;;;19.80;99.90;;;;;;5040386;28;20073;-70
2021/11/29 04:50:55;;;;;;;15.52;1.90;;;19.90;99.90;;;;;;5016210;28;20545;-69
2021/11/29 04:53:22;;;;;;;15.23;2.10;;;19.60;99.90;;;;;;5033230;28;20437;-69
2021/11/29 04:55:49;;;;;;;9.73;1.70;;;19.70;99.90;;;;;;5035899;28;20100;-70
2021/11/29 04:58:17;;;;;;;15.82;2.08;;;19.60;99.90;;;;;;5050739;28;20063;-69
2021/11/29 05:00:48;;;;;;;18.08;2.45;;;19.60;99.90;;;;;;5055631;28;20049;-69
2021/11/29 05:03:15;;;;;;;12.30;1.77;;;19.70;99.90;;;;;;5053251;28;20029;-70
2021/11/29 05:05:42;;;;;;;12.85;2.17;;;19.60;99.90;;;;;;5037887;28;20082;-70
2021/11/29 05:08:10;;;;;;;12.63;2.28;;;19.70;99.90;;;;;;5048706;28;20026;-70
2021/11/29 05:10:37;;;;;;;11.52;2.47;;;19.70;99.90;;;;;;5035338;28;20087;-70
2021/11/29 05:13:04;;;;;;;15.13;2.88;;;19.60;99.90;;;;;;5034685;28;20033;-70
2021/11/29 05:15:32;;;;;;;11.57;1.67;;;19.50;99.90;;;;;;5035456;28;20486;-70
2021/11/29 05:17:59;;;;;;;12.57;2.33;;;19.50;99.90;;;;;;5039073;28;20161;-70
2021/11/29 05:20:26;;;;;;;16.27;2.15;;;19.50;99.90;;;;;;5016290;28;20018;-69
2021/11/29 05:22:53;;;;;;;12.55;1.77;;;19.60;99.90;;;;;;5040141;28;20059;-69
2021/11/29 05:25:21;;;;;;;12.43;1.83;;;19.60;99.90;;;;;;5051506;28;20084;-70
2021/11/29 05:27:48;;;;;;;10.10;1.50;;;19.60;99.90;;;;;;5048716;28;20077;-69
2021/11/29 05:30:16;;;;;;;11.48;2.10;;;19.60;99.90;;;;;;5035133;28;20036;-70
2021/11/29 05:32:43;;;;;;;14.02;2.25;;;19.70;99.90;;;;;;5045384;28;20025;-70
2021/11/29 05:35:10;;;;;;;16.33;2.50;;;19.70;99.90;;;;;;5054971;28;20025;-70
2021/11/29 05:37:37;;;;;;;19.08;1.80;;;19.60;99.90;;;;;;5052236;28;20036;-70
2021/11/29 05:40:06;;;;;;;13.38;1.85;;;19.50;99.90;;;;;;5054761;28;20103;-70
2021/11/29 05:42:33;;;;;;;12.75;3.55;;;19.50;99.90;;;;;;5052029;28;20033;-70
2021/11/29 05:45:00;;;;;;;12.75;2.10;;;19.50;99.90;;;;;;5054741;28;20112;-69
2021/11/29 05:47:27;;;;;;;13.63;1.85;;;19.40;99.90;;;;;;5067353;28;20032;-69
2021/11/29 05:49:55;;;;;;;11.65;2.38;;;19.50;99.90;;;;;;5070120;28;20032;-69
2021/11/29 05:52:22;;;;;;;7.60;1.75;;;19.60;99.90;;;;;;5036490;28;20026;-70
2021/11/29 05:54:49;;;;;;;11.50;1.90;;;19.60;99.90;;;;;;5035602;28;20028;-69
2021/11/29 05:57:16;;;;;;;15.07;1.50;;;19.60;99.90;;;;;;5034637;28;20523;-70
2021/11/29 05:59:44;;;;;;;12.50;2.25;;;19.50;99.90;;;;;;5037479;28;20374;-69
2021/11/29 06:02:12;;;;;;;13.55;2.00;;;19.40;99.90;;;;;;5034558;28;20533;-69
2021/11/29 06:04:39;;;;;;;11.43;2.40;;;19.40;99.90;;;;;;5031079;28;20026;-69
2021/11/29 06:07:06;;;;;;;10.48;1.95;;;19.50;99.90;;;;;;5037157;28;20026;-69
2021/11/29 06:09:34;;;;;;;12.15;1.92;;;19.50;99.90;;;;;;5043292;28;20121;-69
2021/11/29 06:12:01;;;;;;;13.30;1.85;;;19.40;99.90;;;;;;5035614;28;20022;-69
2021/11/29 06:14:28;;;;;;;12.25;2.38;;;19.50;99.90;;;;;;5045634;28;20025;-69
2021/11/29 06:16:56;;;;;;;11.07;1.90;;;19.50;99.90;;;;;;5039256;28;20092;-69
2021/11/29 06:19:23;;;;;;;9.18;1.98;;;19.40;99.90;;;;;;5032661;28;20101;-69
2021/11/29 06:21:51;;;;;;;10.32;2.28;;;19.50;99.90;;;;;;5040503;28;20025;-70
2021/11/29 06:24:18;;;;;;;11.63;2.60;;;19.50;99.90;;;;;;5035501;28;20091;-69
2021/11/29 06:26:46;;;;;;;11.48;2.08;;;20.10;99.90;;;;;;5038922;28;20507;-69
2021/11/29 06:29:13;;;;;;;8.57;1.50;;;19.80;99.90;;;;;;5040925;28;20021;-69
2021/11/29 06:31:41;;;;;;;14.50;2.50;;;19.80;99.90;;;;;;5033115;28;20030;-69
2021/11/29 06:34:09;;;;;;;11.90;2.22;;;19.60;99.90;;;;;;5033474;28;20136;-69
2021/11/29 06:36:36;;;;;;;9.30;2.10;;;19.40;99.90;;;;;;5032184;28;20042;-70
2021/11/29 06:39:04;;;;;;;6.28;1.90;;;19.30;99.90;;;;;;5038200;28;20021;-69
2021/11/29 06:41:31;;;;;;;8.43;1.55;;;19.20;99.90;;;;;;5034889;28;20082;-69
2021/11/29 06:43:59;;;;;;;10.93;1.50;;;19.00;99.90;;;;;;5037191;28;20063;-69
2021/11/29 06:46:26;;;;;;;6.95;1.38;;;19.10;99.90;;;;;;5036909;28;20050;-69
2021/11/29 06:48:53;;;;;;;10.05;1.60;;;19.20;99.90;;;;;;5039182;28;20521;-69
2021/11/29 06:51:24;;;;;;;31.67;8.98;;;19.10;99.90;;;;;;5031783;28;20026;-70
2021/11/29 06:53:51;;;;;;;14.45;1.67;;;19.20;99.90;;;;;;5024005;28;20025;-70
2021/11/29 06:56:19;;;;;;;15.70;2.55;;;19.10;99.90;;;;;;5031527;28;20049;-69
2021/11/29 06:58:46;;;;;;;15.20;1.63;;;19.20;99.90;;;;;;5016453;28;20017;-69
2021/11/29 07:01:13;;;;;;;18.70;2.60;;;19.20;99.90;;;;;;5064732;28;20025;-69
2021/11/29 07:03:42;;;;;;;12.00;2.30;;;19.20;99.90;;;;;;5033968;28;20025;-69
2021/11/29 07:06:09;;;;;;;11.13;2.08;;;19.20;99.90;;;;;;5034091;28;20036;-69
2021/11/29 07:08:36;;;;;;;10.35;2.10;;;19.20;99.90;;;;;;5032115;28;20063;-69
2021/11/29 07:11:04;;;;;;;10.40;1.75;;;19.20;99.90;;;;;;5043336;28;20028;-69
2021/11/29 07:13:31;;;;;;;13.63;3.22;;;19.00;99.90;;;;;;5039203;28;20024;-69
2021/11/29 07:15:58;;;;;;;12.55;3.08;;;19.10;99.90;;;;;;5031122;28;20083;-69
2021/11/29 07:18:26;;;;;;;12.35;1.73;;;19.10;99.90;;;;;;5048042;28;20026;-69
2021/11/29 07:20:55;;;;;;;12.25;1.27;;;18.90;99.90;;;;;;5034579;28;20021;-68
2021/11/29 07:23:22;;;;;;;15.15;2.45;;;18.90;99.90;;;;;;5034720;28;20079;-69
2021/11/29 07:25:50;;;;;;;13.20;1.25;;;18.90;99.90;;;;;;5032983;28;20032;-68
2021/11/29 07:28:17;;;;;;;16.05;1.67;;;18.90;99.90;;;;;;5032982;28;20101;-69
2021/11/29 07:30:44;;;;;;;14.65;3.28;;;18.90;99.90;;;;;;5033504;28;20076;-69
2021/11/29 07:33:12;;;;;;;9.85;1.80;;;18.80;99.90;;;;;;5040847;28;20033;-69
2021/11/29 07:35:39;;;;;;;16.63;2.42;;;18.90;99.90;;;;;;5041775;28;20025;-69
2021/11/29 07:38:07;;;;;;;10.07;1.75;;;19.00;99.90;;;;;;5037006;28;20071;-69
2021/11/29 07:40:34;;;;;;;14.98;2.03;;;18.90;99.90;;;;;;5031788;28;20021;-69
2021/11/29 07:43:08;;;;;;;13.93;2.55;;;19.00;99.90;;;;;;5032197;28;20029;-69
2021/11/29 07:45:37;;;;;;;12.70;2.42;;;18.90;99.90;;;;;;5047383;28;20054;-69
2021/11/29 07:48:05;;;;;;;16.35;2.92;;;18.90;99.90;;;;;;5032470;28;20060;-69
2021/11/29 07:50:32;;;;;;;15.93;2.45;;;18.90;99.90;;;;;;5031032;28;20024;-69
2021/11/29 07:52:59;;;;;;;9.77;1.83;;;18.90;99.90;;;;;;5012624;28;20025;-69
2021/11/29 07:55:28;;;;;;;8.35;1.40;;;18.90;99.90;;;;;;5017781;28;20022;-69
2021/11/29 07:57:57;;;;;;;11.50;2.63;;;18.90;99.90;;;;;;5037125;28;20036;-69
2021/11/29 08:00:27;;;;;;;18.00;2.03;;;18.90;99.90;;;;;;5034446;28;20036;-69
2021/11/29 08:02:57;;;;;;;11.20;1.63;;;18.90;99.90;;;;;;5029546;28;20030;-69
2021/11/29 08:05:26;;;;;;;8.65;1.60;;;18.80;99.90;;;;;;5043540;28;20025;-68
2021/11/29 08:07:56;;;;;;;10.55;1.92;;;18.90;99.90;;;;;;5064119;28;20033;-69
2021/11/29 08:10:25;;;;;;;11.48;2.40;;;18.80;99.90;;;;;;5038841;28;20021;-69
2021/11/29 08:12:53;;;;;;;12.27;2.70;;;18.90;99.90;;;;;;5037445;28;20381;-69
2021/11/29 08:15:21;;;;;;;14.63;2.17;;;18.80;99.90;;;;;;5042026;28;20021;-69
2021/11/29 08:17:49;;;;;;;13.95;2.30;;;18.80;99.90;;;;;;5044519;28;20041;-69
2021/11/29 08:20:23;;;;;;;12.73;2.30;;;18.80;99.90;;;;;;5055684;28;20392;-68
2021/11/29 08:22:50;;;;;;;9.75;2.65;;;18.70;99.90;;;;;;5054756;28;20087;-69
2021/11/29 08:25:18;;;;;;;9.02;2.00;;;18.70;99.90;;;;;;5037022;28;20120;-69
2021/11/29 08:27:45;;;;;;;12.65;1.42;;;18.60;99.90;;;;;;5042342;28;20048;-68
2021/11/29 08:30:16;;;;;;;13.05;2.22;;;18.70;99.90;;;;;;5036010;28;20025;-68
2021/11/29 08:32:43;;;;;;;14.00;2.28;;;18.70;99.90;;;;;;5039917;28;20021;-69
2021/11/29 08:35:12;;;;;;;10.98;2.10;;;18.70;99.90;;;;;;5039310;28;20501;-69
2021/11/29 08:37:45;;;;;;;11.73;2.47;;;18.70;99.90;;;;;;5047024;28;20029;-69
2021/11/29 08:40:14;;;;;;;14.32;2.30;;;18.70;99.90;;;;;;5048044;28;20034;-69
2021/11/29 08:42:42;;;;;;;11.52;1.63;;;18.70;99.90;;;;;;5055066;28;20072;-69
2021/11/29 08:45:09;;;;;;;12.85;2.78;;;18.60;99.90;;;;;;5034619;28;20075;-70
2021/11/29 08:47:37;;;;;;;13.70;1.85;;;18.60;99.90;;;;;;5056373;28;20045;-68
2021/11/29 08:50:05;;;;;;;15.52;2.28;;;18.50;99.90;;;;;;5035817;28;20056;-69
2021/11/29 08:52:34;;;;;;;11.73;1.95;;;18.60;99.90;;;;;;5041386;28;20033;-69
2021/11/29 08:55:05;;;;;;;18.15;2.60;;;18.60;99.90;;;;;;5049076;28;20041;-68
2021/11/29 08:57:33;;;;;;;17.08;2.08;;;18.50;99.90;;;;;;5045352;28;20029;-68
2021/11/29 09:00:01;;;;;;;14.93;2.58;;;18.60;99.90;;;;;;5071265;28;20029;-68
2021/11/29 09:02:28;;;;;;;15.77;2.00;;;18.60;99.90;;;;;;5055725;28;20017;-68
2021/11/29 09:04:56;;;;;;;16.60;2.25;;;18.50;99.90;;;;;;5039643;28;20535;-68
2021/11/29 09:07:23;;;;;;;11.38;2.03;;;18.50;99.90;;;;;;5043982;28;20430;-67
2021/11/29 09:09:50;;;;;;;18.08;2.20;;;18.50;99.90;;;;;;5035460;28;20124;-67
2021/11/29 09:12:17;;;;;;;11.30;1.42;;;18.50;99.90;;;;;;5035398;28;20029;-67
2021/11/29 09:14:45;;;;;;;17.52;2.08;;;18.50;99.90;;;;;;5042552;28;20033;-67
2021/11/29 09:17:12;;;;;;;8.35;1.67;;;18.50;99.90;;;;;;5058418;28;20042;-67
2021/11/29 09:19:39;;;;;;;6.05;1.75;;;18.50;99.90;;;;;;5050774;28;20386;-67
2021/11/29 09:22:07;;;;;;;8.35;2.33;;;18.50;99.90;;;;;;5047212;28;20446;-68
2021/11/29 09:24:35;;;;;;;12.05;1.58;;;18.50;99.90;;;;;;5041546;28;20120;-67
2021/11/29 09:27:02;;;;;;;19.25;2.08;;;18.40;99.90;;;;;;5054170;28;20040;-67
2021/11/29 09:29:29;;;;;;;13.23;1.83;;;18.40;99.90;;;;;;5037178;28;20032;-67
2021/11/29 09:31:58;;;;;;;13.68;1.95;;;18.50;99.90;;;;;;5049546;28;20087;-67
2021/11/29 09:34:25;;;;;;;20.48;2.40;;;18.40;99.90;;;;;;5037213;28;20037;-67
2021/11/29 09:36:53;;;;;;;11.05;1.83;;;18.40;99.90;;;;;;5041928;28;20413;-68
2021/11/29 09:39:20;;;;;;;11.57;1.77;;;18.30;99.90;;;;;;5034350;28;20091;-67
2021/11/29 09:41:47;;;;;;;16.65;3.13;;;18.30;99.90;;;;;;5047617;28;20037;-68
2021/11/29 09:44:15;;;;;;;10.70;1.90;;;18.30;99.90;;;;;;5045703;28;20033;-67
2021/11/29 09:46:44;;;;;;;11.07;2.10;;;18.30;99.90;;;;;;5039343;28;20049;-67
2021/11/29 09:49:12;;;;;;;14.30;1.60;;;18.30;99.90;;;;;;5052925;28;20432;-67
2021/11/29 09:51:39;;;;;;;15.45;2.33;;;18.30;99.90;;;;;;5037066;28;20029;-67
2021/11/29 09:54:09;;;;;;;13.00;2.47;;;18.30;99.90;;;;;;5035400;28;20052;-67
2021/11/29 09:56:38;;;;;;;20.10;2.28;;;18.30;99.90;;;;;;5053636;28;20049;-68
2021/11/29 09:59:06;;;;;;;12.80;1.88;;;18.30;99.90;;;;;;5041241;28;20033;-68
2021/11/29 10:01:33;;;;;;;16.95;1.58;;;18.30;99.90;;;;;;5046440;28;20018;-67
2021/11/29 10:04:02;;;;;;;15.15;3.03;;;18.30;99.90;;;;;;5035428;28;20041;-67
2021/11/29 10:06:30;;;;;;;12.88;2.08;;;18.30;99.90;;;;;;5033437;28;20554;-67
2021/11/29 10:08:57;;;;;;;18.45;2.10;;;18.40;99.90;;;;;;5062588;28;20021;-67
2021/11/29 10:11:25;;;;;;;13.40;1.67;;;18.30;99.90;;;;;;5052834;28;20121;-67
2021/11/29 10:14:09;;;;;;;17.70;2.63;;;18.30;99.90;;;;;;5047226;28;20028;-68
2021/11/29 10:16:40;;;;;;;15.77;2.77;;;18.30;99.90;;;;;;5048158;28;20044;-68
2021/11/29 10:19:31;;;;;;;11.13;2.03;;;18.40;99.90;;;;;;5051755;28;20412;-68
2021/11/29 10:22:21;;;;;;;11.77;2.08;;;18.40;99.90;;;;;;5026931;28;20461;-67
2021/11/29 10:24:51;;;;;;;8.60;1.65;;;18.30;99.90;;;;;;5046537;28;20029;-68
2021/11/29 10:27:39;;;;;;;12.18;2.00;;;18.40;99.90;;;;;;5048852;28;20107;-68
2021/11/29 10:30:07;;;;;;;9.38;2.17;;;18.40;99.90;;;;;;5037196;28;20067;-68
2021/11/29 10:32:41;;;;;;;10.60;1.92;;;18.40;99.90;;;;;;5032844;28;20036;-67
2021/11/29 10:35:14;;;;;;;8.80;1.88;;;18.40;99.90;;;;;;5042919;28;20032;-68
2021/11/29 10:37:45;;;;;;;13.40;2.45;;;18.40;99.90;;;;;;5047851;28;20068;-68
2021/11/29 10:40:15;;;;;;;14.73;1.88;;;18.40;99.90;;;;;;5051616;28;20025;-67
2021/11/29 10:42:43;;;;;;;19.60;2.97;;;18.40;99.90;;;;;;5058211;28;20095;-68
2021/11/29 10:45:23;;;;;;;10.27;2.03;;;18.50;99.90;;;;;;5043344;28;20474;-68
2021/11/29 10:47:53;;;;;;;10.02;2.13;;;18.50;99.90;;;;;;5014061;28;20533;-68
2021/11/29 10:50:29;;;;;;;14.35;2.60;;;18.50;99.90;;;;;;5031808;28;20021;-68
2021/11/29 10:53:12;;;;;;;9.65;2.28;;;18.50;99.90;;;;;;5027072;28;20029;-68
2021/11/29 10:56:05;;;;;;;13.98;2.42;;;18.50;99.90;;;;;;5032838;28;20077;-69
2021/11/29 10:58:44;;;;;;;15.32;2.13;;;18.50;99.90;;;;;;5030460;28;20077;-68
2021/11/29 11:01:14;;;;;;;11.80;2.00;;;18.50;99.90;;;;;;5030810;28;20029;-69
2021/11/29 11:03:54;;;;;;;18.67;2.20;;;18.50;99.90;;;;;;5036739;28;20053;-69
2021/11/29 11:06:36;;;;;;;7.03;2.20;;;18.50;99.90;;;;;;5023120;28;20509;-69
2021/11/29 11:09:13;;;;;;;10.35;2.00;;;18.50;99.90;;;;;;5040366;28;20120;-68
2021/11/29 11:11:50;;;;;;;8.35;1.75;;;18.50;99.90;;;;;;5028927;28;20080;-68
2021/11/29 11:14:23;;;;;;;9.70;1.92;;;18.50;99.90;;;;;;5035444;28;20043;-68
2021/11/29 11:16:59;;;;;;;15.15;2.55;;;18.50;99.90;;;;;;5027275;28;20037;-68
2021/11/29 11:19:30;;;;;;;14.35;2.90;;;18.50;99.90;;;;;;5036006;28;20029;-68
2021/11/29 11:22:02;;;;;;;16.17;2.05;;;18.50;99.90;;;;;;5030536;28;20021;-68
2021/11/29 11:24:34;;;;;;;11.95;1.88;;;18.50;99.90;;;;;;5040279;28;20017;-67
2021/11/29 11:27:03;;;;;;;12.10;2.05;;;18.60;99.90;;;;;;5027495;28;20084;-68
2021/11/29 11:29:41;;;;;;;13.80;2.53;;;18.60;99.90;;;;;;5030936;28;20021;-68
2021/11/29 11:32:22;;;;;;;8.27;1.75;;;18.60;99.90;;;;;;5020861;28;20022;-68
2021/11/29 11:34:53;;;;;;;15.73;2.25;;;18.60;99.90;;;;;;5031432;28;20098;-69
2021/11/29 11:37:23;;;;;;;8.95;1.73;;;18.60;99.90;;;;;;5029775;28;20041;-68
2021/11/29 11:39:51;;;;;;;12.90;2.03;;;18.60;99.90;;;;;;5028682;28;20025;-68
2021/11/29 11:42:19;;;;;;;10.93;1.70;;;18.60;99.90;;;;;;5023582;28;20021;-68
2021/11/29 11:44:48;;;;;;;11.85;1.48;;;18.60;99.90;;;;;;5029760;28;20126;-68
2021/11/29 11:47:15;;;;;;;10.43;1.77;;;18.60;99.90;;;;;;5040802;28;20056;-68
2021/11/29 11:49:46;;;;;;;9.55;2.47;;;18.60;99.90;;;;;;5036206;28;20030;-69
2021/11/29 11:52:20;;;;;;;10.32;1.58;;;18.60;99.90;;;;;;5024165;28;20018;-68
2021/11/29 11:54:49;;;;;;;13.73;1.75;;;18.60;99.90;;;;;;5030526;28;20033;-68
2021/11/29 11:57:21;;;;;;;9.45;1.52;;;18.60;99.90;;;;;;5027553;28;20033;-68
2021/11/29 12:00:07;;;;;;;8.95;1.70;;;18.60;99.90;;;;;;5030525;28;20049;-68
2021/11/29 12:03:05;;;;;;;12.55;1.63;;;18.60;99.90;;;;;;5030986;28;20116;-68
2021/11/29 12:05:59;;;;;;;12.88;2.28;;;18.60;99.90;;;;;;5031190;28;20414;-68
2021/11/29 12:08:35;;;;;;;13.73;2.75;;;18.60;99.90;;;;;;5030625;28;20048;-68
2021/11/29 12:11:08;;;;;;;9.60;1.67;;;18.60;99.90;;;;;;5030845;28;20059;-68
2021/11/29 12:13:46;;;;;;;11.45;1.77;;;18.70;99.90;;;;;;5036626;28;20026;-68
2021/11/29 12:16:29;;;;;;;14.43;1.63;;;18.60;99.90;;;;;;5031473;28;20363;-68
2021/11/29 12:18:56;;;;;;;9.82;1.65;;;18.60;99.90;;;;;;5028631;28;20037;-68
2021/11/29 12:21:43;;;;;;;15.00;1.75;;;18.60;99.90;;;;;;5025860;28;20034;-68
2021/11/29 12:24:19;;;;;;;10.77;1.33;;;18.60;99.90;;;;;;5030076;28;20037;-68
2021/11/29 12:26:46;;;;;;;7.90;1.48;;;18.60;99.90;;;;;;5028342;28;20025;-68
2021/11/29 12:29:23;;;;;;;13.27;1.73;;;18.60;99.90;;;;;;5026610;28;20428;-68
2021/11/29 12:32:02;;;;;;;8.65;1.20;;;18.60;99.90;;;;;;5028860;28;20029;-68
2021/11/29 12:37:12;;;;;;;14.15;2.65;;;18.60;99.90;;;;;;5024956;28;20489;-68
2021/11/29 12:39:47;;;;;;;13.23;1.83;;;18.60;99.90;;;;;;5029392;28;20025;-68
2021/11/29 12:42:23;;;;;;;8.88;1.50;;;18.60;99.90;;;;;;5027080;28;20032;-68
2021/11/29 12:44:57;;;;;;;12.70;2.08;;;18.60;99.90;;;;;;5029847;28;20032;-68
2021/11/29 12:47:28;;;;;;;11.75;2.35;;;18.60;99.90;;;;;;5028166;28;20052;-68
2021/11/29 12:50:03;;;;;;;8.75;1.77;;;18.60;99.90;;;;;;5050522;28;20029;-69
2021/11/29 12:52:39;;;;;;;12.15;2.15;;;18.60;99.90;;;;;;5038559;28;20037;-69